ポルト・アレグレ の空港の天気 - METARとTAF

ポルト・アレグレ国際空港 ( SBPA / POA ) - ブラジル リオグランデ・ド・スル州ポルト・アレグレ
飛行場実況気象(Metar)
観測時間08/22 13:00 BRT (08/22 16:00 UTC)
風向・風速東 6m/s
視程10km以上
天気現象
全天の4割程度の雲 雲底高度 1010m
気温19℃
湿度52%
気圧1025hPa
METARSBPA 221600Z 09012KT 9999 SCT033 19/09 Q1025
過去の天気等 Google飛行場航空写真 Wunderground天気予報

過去48時間のMETAR

飛行場予報(TAF)
発表時間: 8/22 06:15 BRT (8/22 09:15 UTC)
予報対象時間: 22日9時 BRT ~ 23日9時 BRT
風向・風速東南東 5m/s
視程8000m
少しの雲 雲底高度 300m
22日9時 BRT ~ 22日11時 BRT に徐々に
視程10km以上
なし
23日5時 BRT から 確率 40% で
視程8000m
全天の8割程度の雲 雲底高度 300m
TAF SBPA 220915Z 2212/2312 12010KT 8000 FEW010 TX20/2218Z TN10/2309Z
BECMG 2212/2214 CAVOK
PROB40 2308/2312 8000 BKN010 RMK PDW